createdAt,value
2023-12-11T00:01:08.859Z,98017.88
2023-12-11T00:03:35.928Z,98031.75
2023-12-11T00:06:02.975Z,98038.03
2023-12-11T00:08:29.903Z,98037.00
2023-12-11T00:10:57.113Z,98043.75
2023-12-11T00:13:23.980Z,98034.34
2023-12-11T00:15:50.838Z,98021.22
2023-12-11T00:18:17.791Z,98024.06
2023-12-11T00:20:44.846Z,98033.22
2023-12-11T00:23:11.769Z,98011.41
2023-12-11T00:25:38.634Z,98019.91
2023-12-11T00:28:05.542Z,98008.81
2023-12-11T00:30:32.475Z,98008.09
2023-12-11T00:32:59.364Z,98012.44
2023-12-11T00:35:26.224Z,98015.19
2023-12-11T00:37:53.040Z,98028.22
2023-12-11T00:40:19.947Z,98029.91
2023-12-11T00:42:46.820Z,98028.78
2023-12-11T00:45:14.923Z,98020.22
2023-12-11T00:47:41.810Z,98020.81
2023-12-11T00:50:09.139Z,98017.34
2023-12-11T00:52:36.643Z,98025.09
2023-12-11T00:55:03.895Z,98033.88
2023-12-11T00:57:31.399Z,98045.59
2023-12-11T00:59:58.442Z,98045.69
2023-12-11T01:02:25.335Z,98039.88
2023-12-11T01:04:52.265Z,98037.84
2023-12-11T01:07:19.174Z,98042.00
2023-12-11T01:09:46.076Z,98040.31
2023-12-11T01:12:13.025Z,98035.53
2023-12-11T01:14:39.972Z,98042.47
2023-12-11T01:17:36.516Z,98047.63
2023-12-11T01:19:54.663Z,98047.34
2023-12-11T01:22:21.589Z,98048.38
2023-12-11T01:24:49.450Z,98032.09
2023-12-11T01:27:16.325Z,98038.38
2023-12-11T01:29:43.154Z,98044.66
2023-12-11T01:32:09.992Z,98036.34
2023-12-11T01:34:36.945Z,98023.41
2023-12-11T01:37:03.973Z,98031.25
2023-12-11T01:39:30.870Z,98031.63
2023-12-11T01:41:59.250Z,98035.25
2023-12-11T01:44:26.214Z,98039.56
2023-12-11T01:46:54.315Z,98049.28
2023-12-11T01:49:21.327Z,98038.94
2023-12-11T01:51:49.152Z,98049.94
2023-12-11T01:54:17.182Z,98053.72
2023-12-11T01:56:44.045Z,98053.00
2023-12-11T01:59:10.952Z,98040.97
2023-12-11T02:01:38.610Z,98034.16
2023-12-11T02:04:08.836Z,98043.00
2023-12-11T02:06:35.958Z,98043.84
2023-12-11T02:09:03.238Z,98050.69
2023-12-11T02:11:30.224Z,98050.97
2023-12-11T02:13:57.072Z,98062.06
2023-12-11T02:16:23.884Z,98060.56
2023-12-11T02:18:50.985Z,98053.75
2023-12-11T02:21:18.191Z,98050.41
2023-12-11T02:23:59.043Z,98054.84
2023-12-11T02:26:26.335Z,98032.31
2023-12-11T02:28:53.268Z,98050.06
2023-12-11T02:31:20.853Z,98043.22
2023-12-11T02:33:47.761Z,98045.44
2023-12-11T02:36:14.665Z,98044.69
2023-12-11T02:38:41.673Z,98040.72
2023-12-11T02:41:08.598Z,98046.09
2023-12-11T02:43:36.178Z,98030.91
2023-12-11T02:46:04.321Z,98048.56
2023-12-11T02:48:32.722Z,98023.63
2023-12-11T02:51:00.779Z,98054.66
2023-12-11T02:53:27.643Z,98054.09
2023-12-11T02:55:54.498Z,98051.91
2023-12-11T02:58:21.497Z,98052.75
2023-12-11T03:00:48.412Z,98041.34
2023-12-11T03:03:15.355Z,98043.84
2023-12-11T03:05:42.286Z,98042.38
2023-12-11T03:08:09.235Z,98039.91
2023-12-11T03:10:36.193Z,98033.03
2023-12-11T03:13:03.160Z,98034.44
2023-12-11T03:15:32.702Z,98036.91
2023-12-11T03:18:01.212Z,98036.91
2023-12-11T03:20:28.185Z,98029.06
2023-12-11T03:22:55.390Z,98036.72
2023-12-11T03:25:23.116Z,98041.19
2023-12-11T03:27:50.083Z,98032.22
2023-12-11T03:30:17.077Z,98025.13
2023-12-11T03:32:44.969Z,97971.84
2023-12-11T03:35:12.152Z,98021.03
2023-12-11T03:37:39.062Z,98009.66
2023-12-11T03:40:06.543Z,98014.03
2023-12-11T03:42:33.477Z,98011.44
2023-12-11T03:45:00.358Z,97996.81
2023-12-11T03:47:27.320Z,98002.94
2023-12-11T03:49:55.364Z,98012.53
2023-12-11T03:52:22.363Z,98000.91
2023-12-11T03:54:49.241Z,98002.75
2023-12-11T03:57:16.137Z,98004.78
2023-12-11T03:59:43.008Z,97987.03
2023-12-11T04:02:10.014Z,97975.00
2023-12-11T04:04:37.028Z,97972.56
2023-12-11T04:07:04.116Z,97981.72
2023-12-11T04:09:31.155Z,97972.38
2023-12-11T04:11:58.002Z,97972.56
2023-12-11T04:14:24.841Z,97967.28
2023-12-11T04:16:51.671Z,97945.50
2023-12-11T04:19:18.630Z,97945.66
2023-12-11T04:21:45.654Z,97932.19
2023-12-11T04:24:14.713Z,97949.53
2023-12-11T04:26:42.175Z,97952.88
2023-12-11T04:29:09.049Z,97947.75
2023-12-11T04:31:35.923Z,97946.31
2023-12-11T04:34:03.278Z,97962.06
2023-12-11T04:36:30.353Z,97968.72
2023-12-11T04:38:57.356Z,97983.16
2023-12-11T04:41:24.210Z,97988.13
2023-12-11T04:43:51.104Z,97990.69
2023-12-11T04:46:18.002Z,97989.97
2023-12-11T04:48:44.964Z,97997.72
2023-12-11T04:51:11.863Z,98000.13
2023-12-11T04:53:38.733Z,98009.56
2023-12-11T04:56:09.572Z,98002.53
2023-12-11T04:58:36.462Z,97984.34
2023-12-11T05:01:04.094Z,97967.63
2023-12-11T05:03:31.206Z,97964.13
2023-12-11T05:05:58.063Z,97963.94
2023-12-11T05:08:28.050Z,97972.97
2023-12-11T05:10:56.816Z,97966.22
2023-12-11T05:13:23.703Z,97969.38
2023-12-11T05:15:50.601Z,97965.03
2023-12-11T05:18:17.485Z,97947.69
2023-12-11T05:20:44.353Z,97948.50
2023-12-11T05:23:11.232Z,97959.50
2023-12-11T05:25:38.069Z,97975.34
2023-12-11T05:28:05.537Z,97975.25
2023-12-11T05:30:32.422Z,97968.25
2023-12-11T05:33:01.792Z,97962.97
2023-12-11T05:35:28.735Z,97957.69
2023-12-11T05:37:59.829Z,97963.88
2023-12-11T05:40:27.097Z,97949.84
2023-12-11T05:42:54.186Z,97933.69
2023-12-11T05:45:21.052Z,97930.84
2023-12-11T05:47:47.986Z,97924.97
2023-12-11T05:50:14.943Z,97905.00
2023-12-11T05:52:41.925Z,97891.38
2023-12-11T05:55:08.949Z,97901.53
2023-12-11T05:57:35.915Z,97917.38
2023-12-11T06:00:04.719Z,97936.19
2023-12-11T06:02:31.801Z,97935.44
2023-12-11T06:04:58.754Z,97946.47
2023-12-11T06:07:25.632Z,97958.50
2023-12-11T06:09:52.546Z,97953.91
2023-12-11T06:12:19.445Z,97963.50
2023-12-11T06:14:49.186Z,97952.81
2023-12-11T06:17:16.749Z,97939.19
2023-12-11T06:19:44.510Z,97937.78
2023-12-11T06:22:11.755Z,97941.81
2023-12-11T06:24:42.649Z,97926.97
2023-12-11T06:27:10.129Z,97933.00
2023-12-11T06:29:38.089Z,97928.25
2023-12-11T06:32:05.593Z,97954.28
2023-12-11T06:34:34.493Z,97946.78
2023-12-11T06:37:01.687Z,97947.28
2023-12-11T06:39:28.969Z,97947.28
2023-12-11T06:41:57.171Z,97955.56
2023-12-11T06:44:25.089Z,97943.38
2023-12-11T06:46:52.631Z,97926.47
2023-12-11T06:49:19.585Z,97909.03
2023-12-11T06:51:46.881Z,97894.47
2023-12-11T06:54:13.768Z,97893.38
2023-12-11T06:56:40.627Z,97897.75
2023-12-11T06:59:07.683Z,97923.38
2023-12-11T07:01:36.669Z,97917.31
2023-12-11T07:04:04.549Z,97922.47
2023-12-11T07:06:31.600Z,97923.56
2023-12-11T07:08:58.790Z,97927.81
2023-12-11T07:11:26.048Z,97925.13
2023-12-11T07:13:54.269Z,97910.88
2023-12-11T07:16:21.442Z,97909.22
2023-12-11T07:18:48.454Z,97884.94
2023-12-11T07:21:15.397Z,97911.47
2023-12-11T07:23:42.724Z,97906.13
2023-12-11T07:26:10.928Z,97903.63
2023-12-11T07:28:38.764Z,97896.81
2023-12-11T07:31:07.200Z,97895.34
2023-12-11T07:33:35.415Z,97901.41
2023-12-11T07:36:03.495Z,97900.69
2023-12-11T07:38:31.457Z,97906.00
2023-12-11T07:40:58.968Z,97894.50
2023-12-11T07:43:26.341Z,97878.91
2023-12-11T07:45:53.949Z,97883.63
2023-12-11T07:48:21.798Z,97883.09
2023-12-11T07:50:49.023Z,97883.72
2023-12-11T07:53:16.026Z,97880.38
2023-12-11T07:55:42.977Z,97879.16
2023-12-11T07:58:12.519Z,97857.13
2023-12-11T08:00:39.489Z,97834.69
2023-12-11T08:03:07.337Z,97895.97
2023-12-11T08:05:34.428Z,97899.56
2023-12-11T08:08:01.330Z,97912.53
2023-12-11T08:10:29.119Z,97928.44
2023-12-11T08:12:56.019Z,97930.19
2023-12-11T08:15:23.286Z,97941.81
2023-12-11T08:17:50.130Z,97936.25
2023-12-11T08:20:18.901Z,97933.69
2023-12-11T08:22:46.814Z,97945.56
2023-12-11T08:25:15.348Z,97939.50
2023-12-11T08:27:43.263Z,97941.06
2023-12-11T08:30:11.471Z,97907.63
2023-12-11T08:32:40.394Z,97932.53
2023-12-11T08:35:08.882Z,97932.09
2023-12-11T08:37:36.400Z,97927.47
2023-12-11T08:40:05.897Z,97934.13
2023-12-11T08:42:38.939Z,97937.38
2023-12-11T08:45:08.837Z,97929.69
2023-12-11T08:47:39.081Z,97935.81
2023-12-11T08:50:09.406Z,97905.34
2023-12-11T08:52:38.164Z,97929.09
2023-12-11T08:55:06.890Z,97920.31
2023-12-11T08:57:34.463Z,97929.66
2023-12-11T09:00:01.671Z,97924.69
2023-12-11T09:02:28.698Z,97931.53
2023-12-11T09:04:55.811Z,97951.34
2023-12-11T09:07:22.876Z,97958.44
2023-12-11T09:09:49.782Z,97941.31
2023-12-11T09:12:27.844Z,97928.41
2023-12-11T09:15:00.123Z,97926.81
2023-12-11T09:17:27.054Z,97947.94
2023-12-11T09:19:55.895Z,97944.25
2023-12-11T09:22:25.525Z,97962.44
2023-12-11T09:24:52.801Z,97938.78
2023-12-11T09:27:20.858Z,97964.41
2023-12-11T09:29:50.365Z,97967.72
2023-12-11T09:32:17.790Z,97973.63
2023-12-11T09:34:45.293Z,97975.53
2023-12-11T09:37:12.843Z,97982.47
2023-12-11T09:39:40.673Z,97967.13
2023-12-11T09:42:09.470Z,97961.56
2023-12-11T09:44:37.108Z,97968.13
2023-12-11T09:47:22.816Z,97935.44
2023-12-11T09:49:49.857Z,97939.72
2023-12-11T09:52:17.040Z,97946.53
2023-12-11T09:54:44.064Z,97938.78
2023-12-11T09:57:13.910Z,97938.59
2023-12-11T09:59:42.194Z,97942.75
2023-12-11T10:02:15.912Z,97939.34
2023-12-11T10:05:07.956Z,97922.84
2023-12-11T10:07:36.536Z,97928.47
2023-12-11T10:10:35.503Z,97945.72
2023-12-11T10:13:03.052Z,97950.44
2023-12-11T10:15:32.923Z,97951.56
2023-12-11T10:18:07.173Z,97942.97
2023-12-11T10:20:36.044Z,97934.38
2023-12-11T10:23:25.104Z,97933.19
2023-12-11T10:25:57.236Z,97933.56
2023-12-11T10:28:25.730Z,97932.91
2023-12-11T10:30:57.780Z,97929.22
2023-12-11T10:33:28.300Z,97933.47
2023-12-11T10:36:11.963Z,97925.25
2023-12-11T10:38:40.100Z,97908.72
2023-12-11T10:41:07.802Z,97907.19
2023-12-11T10:43:55.986Z,97885.56
2023-12-11T10:46:31.297Z,97884.50
2023-12-11T10:49:00.316Z,97883.06
2023-12-11T10:51:28.953Z,97876.66
2023-12-11T10:53:56.635Z,97887.34
2023-12-11T10:56:25.023Z,97892.47
2023-12-11T10:58:52.753Z,97903.34
2023-12-11T11:01:20.155Z,97905.25
2023-12-11T11:03:47.049Z,97912.81
2023-12-11T11:06:14.560Z,97893.94
2023-12-11T11:08:56.120Z,97893.94
2023-12-11T11:11:29.035Z,97887.63
2023-12-11T11:14:14.443Z,97896.31
2023-12-11T11:16:55.272Z,97914.47
2023-12-11T11:19:22.229Z,97921.13
2023-12-11T11:22:01.398Z,97918.31
2023-12-11T11:24:30.393Z,97916.56
2023-12-11T11:27:02.064Z,97904.00
2023-12-11T11:29:46.104Z,97903.63
2023-12-11T11:32:13.656Z,97908.38
2023-12-11T11:34:40.839Z,97912.63
2023-12-11T11:37:14.626Z,97906.19
2023-12-11T11:40:04.590Z,97898.31
2023-12-11T11:42:36.973Z,97898.88
2023-12-11T11:45:09.150Z,97884.44
2023-12-11T11:47:36.587Z,97892.88
2023-12-11T11:50:17.228Z,97913.06
2023-12-11T11:52:47.352Z,97907.47
2023-12-11T11:55:27.583Z,97909.75
2023-12-11T11:57:55.487Z,97920.22
2023-12-11T12:00:35.016Z,97916.28
2023-12-11T12:03:05.976Z,97928.00
2023-12-11T12:05:34.292Z,97926.88
2023-12-11T12:08:01.841Z,97930.59
2023-12-11T12:10:29.096Z,97918.97
2023-12-11T12:13:01.028Z,97926.34
2023-12-11T12:15:28.897Z,97927.81
2023-12-11T12:18:08.117Z,97931.09
2023-12-11T12:20:35.371Z,97946.66
2023-12-11T12:23:04.953Z,97940.66
2023-12-11T12:25:33.168Z,97929.97
2023-12-11T12:28:13.747Z,97930.16
2023-12-11T12:30:41.183Z,97921.06
2023-12-11T12:33:11.101Z,97923.22
2023-12-11T12:35:39.159Z,97914.72
2023-12-11T12:38:08.495Z,97914.28
2023-12-11T12:40:36.246Z,97917.81
2023-12-11T12:43:14.520Z,97919.81
2023-12-11T12:45:43.010Z,97904.63
2023-12-11T12:48:10.807Z,97909.38
2023-12-11T12:50:37.753Z,97907.91
2023-12-11T12:53:10.762Z,97917.66
2023-12-11T12:55:39.090Z,97919.00
2023-12-11T12:58:06.799Z,97924.50
2023-12-11T13:00:36.681Z,97927.00
2023-12-11T13:03:04.555Z,97919.81
2023-12-11T13:05:43.475Z,97931.63
2023-12-11T13:08:10.876Z,97927.50
2023-12-11T13:10:38.421Z,97932.78
2023-12-11T13:13:13.699Z,97926.88
2023-12-11T13:15:41.048Z,97933.81
2023-12-11T13:18:08.028Z,97940.66
2023-12-11T13:20:35.205Z,97938.19
2023-12-11T13:23:02.151Z,97934.97
2023-12-11T13:25:29.114Z,97944.94
2023-12-11T13:27:56.057Z,97942.19
2023-12-11T13:30:23.553Z,97939.53
2023-12-11T13:32:51.414Z,97944.72
2023-12-11T13:35:18.454Z,97942.06
2023-12-11T13:37:45.296Z,97940.78
2023-12-11T13:40:12.629Z,97952.84
2023-12-11T13:42:39.994Z,97960.91
2023-12-11T13:45:07.783Z,97954.38
2023-12-11T13:47:34.857Z,97956.84
2023-12-11T13:50:02.221Z,97964.22
2023-12-11T13:52:29.202Z,97954.72
2023-12-11T13:54:56.134Z,97967.91
2023-12-11T13:57:23.105Z,97967.38
2023-12-11T13:59:50.669Z,97968.56
2023-12-11T14:02:57.900Z,97971.56
2023-12-11T14:05:06.855Z,97979.81
2023-12-11T14:07:34.355Z,97973.16
2023-12-11T14:10:01.330Z,97988.34
2023-12-11T14:12:28.712Z,97990.81
2023-12-11T14:14:55.631Z,97980.97
2023-12-11T14:17:22.583Z,97988.16
2023-12-11T14:19:50.166Z,97993.53
2023-12-11T14:22:17.182Z,97989.78
2023-12-11T14:24:45.367Z,98012.22
2023-12-11T14:27:14.025Z,98022.59
2023-12-11T14:29:41.925Z,98028.72
2023-12-11T14:32:09.250Z,98011.19
2023-12-11T14:34:36.248Z,98028.22
2023-12-11T14:37:04.550Z,98038.38
2023-12-11T14:39:32.256Z,98034.97
2023-12-11T14:41:59.100Z,98045.25
2023-12-11T14:44:25.916Z,98052.88
2023-12-11T14:46:52.736Z,98026.31
2023-12-11T14:49:21.049Z,98057.06
2023-12-11T14:51:48.161Z,98061.41
2023-12-11T14:54:16.618Z,98057.69
2023-12-11T14:56:44.108Z,98067.03
2023-12-11T14:59:11.289Z,98063.41
2023-12-11T15:01:38.476Z,98061.63
2023-12-11T15:04:05.767Z,98058.41
2023-12-11T15:06:33.477Z,98068.38
2023-12-11T15:09:01.032Z,98069.44
2023-12-11T15:11:28.478Z,98075.84
2023-12-11T15:13:56.074Z,98075.00
2023-12-11T15:16:23.402Z,98095.03
2023-12-11T15:18:50.552Z,98085.56
2023-12-11T15:21:17.646Z,98102.50
2023-12-11T15:23:45.386Z,98103.34
2023-12-11T15:26:19.409Z,98110.38
2023-12-11T15:28:47.377Z,98117.75
2023-12-11T15:31:24.733Z,98109.38
2023-12-11T15:33:52.321Z,98118.69
2023-12-11T15:36:19.883Z,98116.22
2023-12-11T15:38:46.805Z,98124.31
2023-12-11T15:41:14.272Z,98137.44
2023-12-11T15:43:48.349Z,98128.97
2023-12-11T15:46:18.574Z,98128.50
2023-12-11T15:48:47.042Z,98141.88
2023-12-11T15:51:20.259Z,98132.72
2023-12-11T15:53:47.675Z,98150.19
2023-12-11T15:56:17.010Z,98147.06
2023-12-11T15:58:45.204Z,98152.63
2023-12-11T16:01:12.725Z,98153.97
2023-12-11T16:03:40.101Z,98153.41
2023-12-11T16:06:08.221Z,98158.59
2023-12-11T16:08:35.202Z,98167.31
2023-12-11T16:11:02.072Z,98182.25
2023-12-11T16:13:28.915Z,98181.22
2023-12-11T16:15:57.248Z,98181.41
2023-12-11T16:18:24.312Z,98192.88
2023-12-11T16:20:51.200Z,98198.97
2023-12-11T16:23:18.021Z,98200.00
2023-12-11T16:25:51.617Z,98199.56
2023-12-11T16:28:26.918Z,98202.16
2023-12-11T16:30:54.042Z,98198.63
2023-12-11T16:33:21.073Z,98204.56
2023-12-11T16:35:47.988Z,98209.19
2023-12-11T16:38:14.900Z,98208.44
2023-12-11T16:40:41.971Z,98207.50
2023-12-11T16:43:09.728Z,98208.66
2023-12-11T16:45:36.713Z,98208.00
2023-12-11T16:48:04.043Z,98214.19
2023-12-11T16:50:31.282Z,98222.06
2023-12-11T16:52:58.186Z,98225.41
2023-12-11T16:55:25.218Z,98225.69
2023-12-11T16:57:52.177Z,98229.00
2023-12-11T17:00:19.716Z,98229.00
2023-12-11T17:02:46.844Z,98234.19
2023-12-11T17:05:14.043Z,98229.75
2023-12-11T17:07:41.122Z,98224.56
2023-12-11T17:10:08.685Z,98220.22
2023-12-11T17:12:36.224Z,98228.28
2023-12-11T17:15:03.787Z,98219.97
2023-12-11T17:17:30.994Z,98220.50
2023-12-11T17:19:58.679Z,98220.50
2023-12-11T17:22:25.899Z,98197.75
2023-12-11T17:24:53.682Z,98228.84
2023-12-11T17:27:20.838Z,98219.97
2023-12-11T17:29:47.857Z,98221.97
2023-12-11T17:32:14.769Z,98229.75
2023-12-11T17:34:42.775Z,98228.00
2023-12-11T17:37:09.906Z,98229.75
2023-12-11T17:39:36.745Z,98197.41
2023-12-11T17:42:04.054Z,98231.97
2023-12-11T17:44:30.915Z,98231.72
2023-12-11T17:46:57.806Z,98222.91
2023-12-11T17:49:24.745Z,98233.00
2023-12-11T17:51:53.120Z,98237.53
2023-12-11T17:54:20.127Z,98246.97
2023-12-11T17:56:47.128Z,98254.81
2023-12-11T17:59:15.080Z,98255.28
2023-12-11T18:01:42.086Z,98258.81
2023-12-11T18:04:09.173Z,98264.81
2023-12-11T18:06:36.179Z,98266.19
2023-12-11T18:09:06.053Z,98268.97
2023-12-11T18:11:32.986Z,98269.72
2023-12-11T18:13:59.909Z,98267.88
2023-12-11T18:16:26.975Z,98267.78
2023-12-11T18:18:54.068Z,98279.88
2023-12-11T18:21:20.939Z,98278.78
2023-12-11T18:23:47.820Z,98282.38
2023-12-11T18:26:14.775Z,98281.00
2023-12-11T18:28:41.776Z,98242.88
2023-12-11T18:31:08.758Z,98273.50
2023-12-11T18:33:35.735Z,98300.44
2023-12-11T18:36:02.780Z,98288.59
2023-12-11T18:38:30.437Z,98291.47
2023-12-11T18:40:59.161Z,98286.44
2023-12-11T18:43:26.018Z,98287.28
2023-12-11T18:45:52.857Z,98296.88
2023-12-11T18:48:19.917Z,98301.31
2023-12-11T18:50:46.852Z,98300.59
2023-12-11T18:53:13.680Z,98308.38
2023-12-11T18:55:40.515Z,98308.38
2023-12-11T18:58:07.381Z,98299.47
2023-12-11T19:00:34.553Z,98298.00
2023-12-11T19:03:01.562Z,98303.53
2023-12-11T19:05:28.694Z,98316.28
2023-12-11T19:07:57.526Z,98316.38
2023-12-11T19:10:24.424Z,98322.41
2023-12-11T19:12:53.017Z,98326.66
2023-12-11T19:15:22.388Z,98332.75
2023-12-11T19:17:49.464Z,98346.47
2023-12-11T19:20:16.542Z,98347.91
2023-12-11T19:22:43.490Z,98337.81
2023-12-11T19:25:11.618Z,98355.84
2023-12-11T19:27:42.504Z,98370.09
2023-12-11T19:30:11.953Z,98371.88
2023-12-11T19:32:38.924Z,98366.56
2023-12-11T19:35:07.718Z,98364.88
2023-12-11T19:37:35.058Z,98366.38
2023-12-11T19:40:03.748Z,98376.72
2023-12-11T19:42:30.704Z,98367.22
2023-12-11T19:44:57.633Z,98386.09
2023-12-11T19:47:25.214Z,98370.13
2023-12-11T19:49:52.148Z,98383.50
2023-12-11T19:52:19.133Z,98385.56
2023-12-11T19:54:46.623Z,98391.78
2023-12-11T19:57:13.699Z,98393.28
2023-12-11T19:59:44.575Z,98397.63
2023-12-11T20:02:11.694Z,98378.75
2023-12-11T20:04:42.635Z,98375.00
2023-12-11T20:07:13.600Z,98396.59
2023-12-11T20:09:44.510Z,98401.63
2023-12-11T20:12:14.491Z,98416.81
2023-12-11T20:14:41.915Z,98416.56
2023-12-11T20:17:08.819Z,98415.34
2023-12-11T20:19:35.800Z,98406.06
2023-12-11T20:22:03.361Z,98402.97
2023-12-11T20:24:30.217Z,98417.97
2023-12-11T20:26:57.221Z,98413.56
2023-12-11T20:29:24.076Z,98415.66
2023-12-11T20:31:54.185Z,98408.22
2023-12-11T20:34:21.059Z,98416.16
2023-12-11T20:36:51.876Z,98420.34
2023-12-11T20:39:18.785Z,98418.81
2023-12-11T20:41:45.903Z,98415.16
2023-12-11T20:44:13.131Z,98411.72
2023-12-11T20:46:40.105Z,98416.72
2023-12-11T20:49:07.068Z,98406.81
2023-12-11T20:51:34.752Z,98417.41
2023-12-11T20:54:01.544Z,98403.41
2023-12-11T20:56:31.786Z,98416.50
2023-12-11T20:59:00.600Z,98413.81
2023-12-11T21:01:32.710Z,98391.78
2023-12-11T21:04:02.535Z,98415.34
2023-12-11T21:06:31.158Z,98418.81
2023-12-11T21:09:00.121Z,98420.03
2023-12-11T21:11:28.054Z,98414.41
2023-12-11T21:13:55.119Z,98423.09
2023-12-11T21:16:22.340Z,98433.38
2023-12-11T21:18:50.481Z,98442.97
2023-12-11T21:21:18.477Z,98449.22
2023-12-11T21:23:46.705Z,98440.06
2023-12-11T21:26:19.448Z,98436.88
2023-12-11T21:28:47.786Z,98460.31
2023-12-11T21:31:33.777Z,98461.06
2023-12-11T21:34:00.987Z,98460.22
2023-12-11T21:36:31.127Z,98458.91
2023-12-11T21:38:59.326Z,98449.88
2023-12-11T21:41:26.346Z,98467.66
2023-12-11T21:43:54.128Z,98452.00
2023-12-11T21:46:21.448Z,98473.06
2023-12-11T21:48:49.502Z,98465.72
2023-12-11T21:51:19.506Z,98458.91
2023-12-11T21:53:47.624Z,98463.56
2023-12-11T21:56:14.889Z,98442.75
2023-12-11T21:58:43.368Z,98460.97
2023-12-11T22:01:10.709Z,98458.66
2023-12-11T22:03:37.927Z,98453.38
2023-12-11T22:06:04.959Z,98451.72
2023-12-11T22:08:31.971Z,98450.97
2023-12-11T22:10:58.843Z,98454.31
2023-12-11T22:13:26.648Z,98451.66
2023-12-11T22:15:53.727Z,98446.22
2023-12-11T22:18:20.794Z,98448.13
2023-12-11T22:20:48.081Z,98443.28
2023-12-11T22:23:15.111Z,98447.22
2023-12-11T22:25:42.008Z,98427.69
2023-12-11T22:28:09.286Z,98443.03
2023-12-11T22:30:36.248Z,98442.03
2023-12-11T22:33:03.223Z,98434.22
2023-12-11T22:35:30.059Z,98447.03
2023-12-11T22:37:56.887Z,98437.09
2023-12-11T22:40:23.862Z,98449.03
2023-12-11T22:42:50.743Z,98425.53
2023-12-11T22:45:19.632Z,98442.03
2023-12-11T22:47:46.865Z,98436.59
2023-12-11T22:50:14.209Z,98432.09
2023-12-11T22:52:41.121Z,98433.03
2023-12-11T22:55:08.760Z,98440.53
2023-12-11T22:57:35.684Z,98442.44
2023-12-11T23:00:02.902Z,98435.50
2023-12-11T23:02:30.574Z,98444.47
2023-12-11T23:04:58.116Z,98446.53
2023-12-11T23:07:25.336Z,98450.28
2023-12-11T23:09:52.298Z,98454.06
2023-12-11T23:12:19.174Z,98457.09
2023-12-11T23:14:46.020Z,98457.34
2023-12-11T23:17:12.882Z,98452.28
2023-12-11T23:19:39.977Z,98463.97
2023-12-11T23:22:06.988Z,98465.25
2023-12-11T23:24:33.844Z,98463.59
2023-12-11T23:27:01.716Z,98470.50
2023-12-11T23:29:28.740Z,98472.16
2023-12-11T23:31:55.559Z,98462.16
2023-12-11T23:34:22.595Z,98463.66
2023-12-11T23:36:49.564Z,98458.03
2023-12-11T23:39:16.470Z,98459.63
2023-12-11T23:41:44.619Z,98451.44
2023-12-11T23:44:11.663Z,98450.75
2023-12-11T23:46:38.701Z,98449.91
2023-12-11T23:49:05.767Z,98447.91
2023-12-11T23:51:32.955Z,98449.09
2023-12-11T23:54:00.571Z,98449.63
2023-12-11T23:56:27.487Z,98438.31
2023-12-11T23:58:55.620Z,98448.66
